createdAt,value
2018-12-02T00:00:53.049Z,0.78
2018-12-02T00:03:23.811Z,0.82
2018-12-02T00:05:54.377Z,0.70
2018-12-02T00:08:25.099Z,0.60
2018-12-02T00:10:55.665Z,0.62
2018-12-02T00:13:26.193Z,0.65
2018-12-02T00:15:56.754Z,0.55
2018-12-02T00:18:27.293Z,0.55
2018-12-02T00:39:26.917Z,0.70
2018-12-02T00:41:56.922Z,0.55
2018-12-02T00:44:27.491Z,0.68
2018-12-02T00:46:58.044Z,0.40
2018-12-02T00:49:28.778Z,0.50
2018-12-02T00:51:59.314Z,0.40
2018-12-02T00:54:29.865Z,0.30
2018-12-02T00:57:00.426Z,0.40
2018-12-02T00:59:31.005Z,0.30
2018-12-02T01:02:01.558Z,0.40
2018-12-02T01:04:32.104Z,0.37
2018-12-02T01:07:02.671Z,0.30
2018-12-02T01:09:33.209Z,0.40
2018-12-02T01:12:04.114Z,0.30
2018-12-02T01:14:34.646Z,0.30
2018-12-02T01:17:05.242Z,0.30
2018-12-02T01:19:35.962Z,0.30
2018-12-02T01:22:06.854Z,0.40
2018-12-02T01:24:37.403Z,0.30
2018-12-02T01:27:08.138Z,0.30
2018-12-02T01:29:38.670Z,0.28
2018-12-02T01:32:09.260Z,0.50
2018-12-02T01:34:39.966Z,0.20
2018-12-02T01:37:11.197Z,0.25
2018-12-02T01:39:41.753Z,0.28
2018-12-02T01:42:12.313Z,0.30
2018-12-02T01:44:42.890Z,0.25
2018-12-02T01:47:13.797Z,0.40
2018-12-02T01:49:44.368Z,0.25
2018-12-02T01:52:15.086Z,0.40
2018-12-02T01:54:45.632Z,0.20
2018-12-02T01:57:16.182Z,0.20
2018-12-02T01:59:46.902Z,0.20
2018-12-02T02:02:17.435Z,0.10
2018-12-02T02:04:47.988Z,0.30
2018-12-02T02:07:18.548Z,0.20
2018-12-02T02:09:49.098Z,0.30
2018-12-02T02:12:19.977Z,0.20
2018-12-02T02:14:50.509Z,0.10
2018-12-02T02:17:21.114Z,0.13
2018-12-02T02:19:51.648Z,0.30
2018-12-02T02:22:22.383Z,0.23
2018-12-02T02:24:52.922Z,0.28
2018-12-02T02:27:23.469Z,0.35
2018-12-02T02:29:54.042Z,0.30
2018-12-02T02:32:24.606Z,0.20
2018-12-02T02:34:55.310Z,0.10
2018-12-02T02:37:25.865Z,0.15
2018-12-02T02:39:56.569Z,0.20
2018-12-02T02:42:27.147Z,0.20
2018-12-02T02:44:57.691Z,0.20
2018-12-02T02:47:28.262Z,0.20
2018-12-02T02:49:58.794Z,0.30
2018-12-02T02:52:29.349Z,0.28
2018-12-02T02:54:59.869Z,0.20
2018-12-02T02:57:30.425Z,0.20
2018-12-02T03:00:00.989Z,0.40
2018-12-02T03:02:31.536Z,0.40
2018-12-02T03:05:02.132Z,0.30
2018-12-02T03:07:32.701Z,0.50
2018-12-02T03:10:04.517Z,0.33
2018-12-02T03:12:35.083Z,0.30
2018-12-02T03:15:07.837Z,0.50
2018-12-02T03:17:38.405Z,0.30
2018-12-02T03:20:10.423Z,0.40
2018-12-02T03:22:41.788Z,0.40
2018-12-02T03:25:15.318Z,0.50
2018-12-02T03:27:45.874Z,0.53
2018-12-02T03:30:17.874Z,0.40
2018-12-02T03:32:48.654Z,0.40
2018-12-02T03:35:20.799Z,0.40
2018-12-02T03:37:52.065Z,0.30
2018-12-02T03:40:24.387Z,0.30
2018-12-02T03:42:55.283Z,0.50
2018-12-02T03:45:29.071Z,0.30
2018-12-02T03:47:59.637Z,0.30
2018-12-02T03:50:30.180Z,0.30
2018-12-02T03:53:00.722Z,0.37
2018-12-02T03:55:31.465Z,0.37
2018-12-02T03:58:02.006Z,0.25
2018-12-02T04:00:32.586Z,0.40
2018-12-02T04:03:03.121Z,0.35
2018-12-02T04:05:33.659Z,0.40
2018-12-02T04:08:04.202Z,0.40
2018-12-02T04:10:34.710Z,0.37
2018-12-02T04:13:05.413Z,0.40
2018-12-02T04:15:35.942Z,0.40
2018-12-02T04:18:06.505Z,0.40
2018-12-02T04:20:37.026Z,0.40
2018-12-02T04:23:07.593Z,0.37
2018-12-02T04:25:38.117Z,0.40
2018-12-02T04:28:08.670Z,0.30
2018-12-02T04:30:39.410Z,0.40
2018-12-02T04:33:09.966Z,0.20
2018-12-02T04:35:40.481Z,0.30
2018-12-02T04:38:11.028Z,0.30
2018-12-02T04:40:41.597Z,0.28
2018-12-02T04:43:12.101Z,0.50
2018-12-02T04:45:42.651Z,0.30
2018-12-02T04:48:13.210Z,0.42
2018-12-02T04:50:43.761Z,0.30
2018-12-02T04:53:14.285Z,0.30
2018-12-02T04:55:44.847Z,0.30
2018-12-02T04:58:15.558Z,0.30
2018-12-02T05:00:46.103Z,0.30
2018-12-02T05:03:16.834Z,0.30
2018-12-02T05:05:47.543Z,0.17
2018-12-02T05:08:18.104Z,0.30
2018-12-02T05:10:48.809Z,0.35
2018-12-02T05:13:19.389Z,0.30
2018-12-02T05:15:49.926Z,0.20
2018-12-02T05:18:20.650Z,0.20
2018-12-02T05:20:51.175Z,0.20
2018-12-02T05:23:21.734Z,0.35
2018-12-02T05:25:52.530Z,0.28
2018-12-02T05:28:23.051Z,0.30
2018-12-02T05:30:54.124Z,0.55
2018-12-02T05:33:24.685Z,0.20
2018-12-02T05:35:55.249Z,0.50
2018-12-02T05:38:25.803Z,0.20
2018-12-02T05:40:56.361Z,0.20
2018-12-02T05:43:26.913Z,0.30
2018-12-02T05:45:57.470Z,0.20
2018-12-02T05:48:28.082Z,0.30
2018-12-02T05:50:58.646Z,0.20
2018-12-02T05:53:29.168Z,0.30
2018-12-02T05:55:59.718Z,0.20
2018-12-02T05:58:30.430Z,0.17
2018-12-02T06:01:00.991Z,0.40
2018-12-02T06:03:31.689Z,0.20
2018-12-02T06:06:02.244Z,0.20
2018-12-02T06:08:32.792Z,0.33
2018-12-02T06:11:03.337Z,0.30
2018-12-02T06:13:33.870Z,0.30
2018-12-02T06:16:05.090Z,0.25
2018-12-02T06:18:35.614Z,0.28
2018-12-02T06:21:06.227Z,0.30
2018-12-02T06:23:36.757Z,0.13
2018-12-02T06:26:08.291Z,0.17
2018-12-02T06:28:37.834Z,0.30
2018-12-02T06:31:08.390Z,0.20
2018-12-02T06:33:38.974Z,0.20
2018-12-02T06:36:09.766Z,0.10
2018-12-02T06:38:40.461Z,0.20
2018-12-02T06:41:11.013Z,0.25
2018-12-02T06:43:41.537Z,0.20
2018-12-02T06:48:48.965Z,0.30
2018-12-02T06:51:19.701Z,0.20
2018-12-02T06:53:50.250Z,0.30
2018-12-02T06:56:28.009Z,0.20
2018-12-02T06:59:12.609Z,0.50
2018-12-02T07:01:53.459Z,0.30
2018-12-02T07:04:30.910Z,0.25
2018-12-02T07:07:02.224Z,0.75
2018-12-02T07:09:32.934Z,0.35
2018-12-02T07:12:03.527Z,0.50
2018-12-02T07:14:34.059Z,0.30
2018-12-02T07:17:04.967Z,0.50
2018-12-02T07:19:39.133Z,0.30
2018-12-02T07:22:15.559Z,0.37
2018-12-02T07:24:49.725Z,0.40
2018-12-02T07:27:20.272Z,0.20
2018-12-02T07:29:50.796Z,0.40
2018-12-02T07:32:21.358Z,0.40
2018-12-02T07:34:52.086Z,0.47
2018-12-02T07:37:23.413Z,0.50
2018-12-02T07:40:01.185Z,0.50
2018-12-02T07:42:31.754Z,0.45
2018-12-02T07:45:02.278Z,0.42
2018-12-02T07:47:32.821Z,0.30
2018-12-02T07:50:04.170Z,0.30
2018-12-02T07:52:34.710Z,0.30
2018-12-02T07:55:06.246Z,0.30
2018-12-02T07:57:37.297Z,0.42
2018-12-02T08:00:14.509Z,0.40
2018-12-02T08:02:45.071Z,0.50
2018-12-02T08:05:16.774Z,0.57
2018-12-02T08:07:48.698Z,0.30
2018-12-02T08:10:19.678Z,0.30
2018-12-02T08:12:50.209Z,0.45
2018-12-02T08:15:20.941Z,0.60
2018-12-02T08:17:51.501Z,0.40
2018-12-02T08:20:22.050Z,0.40
2018-12-02T08:22:52.609Z,0.30
2018-12-02T08:25:23.157Z,0.60
2018-12-02T08:30:30.586Z,0.30
2018-12-02T08:33:01.128Z,0.23
2018-12-02T08:35:31.697Z,0.30
2018-12-02T08:38:06.154Z,0.25
2018-12-02T08:40:36.934Z,0.40
2018-12-02T08:43:08.240Z,0.30
2018-12-02T08:45:38.982Z,0.20
2018-12-02T08:48:09.748Z,0.40
2018-12-02T08:50:40.336Z,0.40
2018-12-02T08:53:10.878Z,0.30
2018-12-02T08:55:41.648Z,0.40
2018-12-02T08:58:12.379Z,0.50
2018-12-02T09:00:42.986Z,0.30
2018-12-02T09:05:50.874Z,0.20
2018-12-02T09:08:21.414Z,0.20
2018-12-02T09:10:51.969Z,0.47
2018-12-02T09:13:22.489Z,0.30
2018-12-02T09:15:53.036Z,0.20
2018-12-02T09:18:23.559Z,0.40
2018-12-02T09:20:54.258Z,0.30
2018-12-02T09:23:24.979Z,0.30
2018-12-02T09:25:55.535Z,0.20
2018-12-02T09:28:26.261Z,0.42
2018-12-02T09:30:56.820Z,0.30
2018-12-02T09:33:27.369Z,0.30
2018-12-02T09:35:57.925Z,0.50
2018-12-02T09:38:28.456Z,0.20
2018-12-02T09:40:59.007Z,0.23
2018-12-02T09:43:29.534Z,0.15
2018-12-02T09:46:00.446Z,0.40
2018-12-02T09:48:31.143Z,0.37
2018-12-02T09:51:01.714Z,0.25
2018-12-02T09:53:32.241Z,0.40
2018-12-02T09:56:02.839Z,0.37
2018-12-02T09:58:33.876Z,0.50
2018-12-02T10:01:04.447Z,0.30
2018-12-02T10:03:34.993Z,0.37
2018-12-02T10:06:05.915Z,0.30
2018-12-02T10:08:36.440Z,0.28
2018-12-02T10:11:07.321Z,0.30
2018-12-02T10:13:37.850Z,0.30
2018-12-02T10:16:08.586Z,0.60
2018-12-02T10:18:39.121Z,0.60
2018-12-02T10:21:09.694Z,0.47
2018-12-02T10:23:40.278Z,0.50
2018-12-02T10:26:10.857Z,0.70
2018-12-02T10:28:41.381Z,0.60
2018-12-02T10:31:11.958Z,0.50
2018-12-02T10:33:42.517Z,0.65
2018-12-02T10:36:13.064Z,0.60
2018-12-02T10:38:43.586Z,0.60
2018-12-02T10:41:14.147Z,0.50
2018-12-02T10:43:44.661Z,0.53
2018-12-02T10:46:15.227Z,0.50
2018-12-02T10:48:45.774Z,0.90
2018-12-02T10:51:16.330Z,0.90
2018-12-02T10:53:46.901Z,0.80
2018-12-02T10:56:17.463Z,1.02
2018-12-02T10:58:48.026Z,0.80
2018-12-02T11:01:18.968Z,0.60
2018-12-02T11:06:26.553Z,0.70
2018-12-02T11:08:57.108Z,0.50
2018-12-02T11:11:27.646Z,0.60
2018-12-02T11:13:58.226Z,0.62
2018-12-02T11:16:28.765Z,0.60
2018-12-02T11:18:59.561Z,0.65
2018-12-02T11:21:30.097Z,0.80
2018-12-02T11:24:00.662Z,0.90
2018-12-02T11:26:31.222Z,0.68
2018-12-02T11:29:01.778Z,0.30
2018-12-02T11:31:32.354Z,0.23
2018-12-02T11:34:02.877Z,0.30
2018-12-02T11:36:33.429Z,0.20
2018-12-02T11:39:06.172Z,0.28
2018-12-02T11:41:37.229Z,0.30
2018-12-02T11:44:07.769Z,0.30
2018-12-02T11:46:38.325Z,0.33
2018-12-02T11:49:08.877Z,0.20
2018-12-02T11:51:39.434Z,0.37
2018-12-02T11:54:10.030Z,0.30
2018-12-02T11:56:40.591Z,0.40
2018-12-02T11:59:11.124Z,0.30
2018-12-02T12:01:41.686Z,0.30
2018-12-02T12:04:12.402Z,0.50
2018-12-02T12:06:42.957Z,0.40
2018-12-02T12:09:13.486Z,0.30
2018-12-02T12:11:44.040Z,0.30
2018-12-02T12:14:14.574Z,0.30
2018-12-02T12:16:45.146Z,0.40
2018-12-02T12:19:15.857Z,0.40
2018-12-02T12:21:46.425Z,0.40
2018-12-02T12:24:16.966Z,0.40
2018-12-02T12:26:47.508Z,0.30
2018-12-02T12:29:18.064Z,0.33
2018-12-02T12:31:48.638Z,0.60
2018-12-02T12:34:19.217Z,0.42
2018-12-02T12:36:49.756Z,0.40
2018-12-02T12:39:20.312Z,0.60
2018-12-02T12:41:51.021Z,0.40
2018-12-02T12:44:21.756Z,0.45
2018-12-02T12:46:52.321Z,0.60
2018-12-02T12:49:22.883Z,0.72
2018-12-02T12:51:53.434Z,0.47
2018-12-02T12:54:24.173Z,0.60
2018-12-02T12:56:54.757Z,0.68
2018-12-02T12:59:25.316Z,0.42
2018-12-02T13:01:55.885Z,0.70
2018-12-02T13:04:26.417Z,0.50
2018-12-02T13:06:57.030Z,0.50
2018-12-02T13:09:27.574Z,0.60
2018-12-02T13:11:58.150Z,0.60
2018-12-02T13:14:28.861Z,0.65
2018-12-02T13:16:59.397Z,0.53
2018-12-02T13:19:29.952Z,0.60
2018-12-02T13:22:00.514Z,0.50
2018-12-02T13:24:31.071Z,0.80
2018-12-02T13:27:01.643Z,0.70
2018-12-02T13:29:32.186Z,0.68
2018-12-02T13:32:02.942Z,0.82
2018-12-02T13:34:33.524Z,0.75
2018-12-02T13:37:04.085Z,0.60
2018-12-02T13:39:34.805Z,0.72
2018-12-02T13:42:05.553Z,0.93
2018-12-02T13:44:36.190Z,0.98
2018-12-02T13:47:06.874Z,0.90
2018-12-02T13:49:37.438Z,1.02
2018-12-02T13:52:07.994Z,1.00
2018-12-02T13:54:38.553Z,1.02
2018-12-02T13:57:09.417Z,1.30
2018-12-02T13:59:39.978Z,1.10
2018-12-02T14:02:10.541Z,1.05
2018-12-02T14:04:41.103Z,1.10
2018-12-02T14:07:11.640Z,1.00
2018-12-02T14:09:42.208Z,1.17
2018-12-02T14:12:12.758Z,1.07
2018-12-02T14:14:44.314Z,1.05
2018-12-02T14:17:18.621Z,0.95
2018-12-02T14:19:49.333Z,1.07
2018-12-02T14:22:19.871Z,0.98
2018-12-02T14:24:51.445Z,1.20
2018-12-02T14:27:22.011Z,1.10
2018-12-02T14:29:54.111Z,1.00
2018-12-02T14:32:25.789Z,0.90
2018-12-02T14:34:56.371Z,0.90
2018-12-02T14:37:26.937Z,0.98
2018-12-02T14:39:57.460Z,0.90
2018-12-02T14:42:28.047Z,1.10
2018-12-02T14:44:58.577Z,0.82
2018-12-02T14:47:29.156Z,1.12
2018-12-02T14:49:59.696Z,0.90
2018-12-02T14:52:30.524Z,0.93
2018-12-02T14:55:01.059Z,1.20
2018-12-02T14:57:31.633Z,1.10
2018-12-02T15:00:02.213Z,1.25
2018-12-02T15:02:32.770Z,1.35
2018-12-02T15:05:03.564Z,1.37
2018-12-02T15:07:34.118Z,1.32
2018-12-02T15:10:07.066Z,1.15
2018-12-02T15:12:37.609Z,1.30
2018-12-02T15:15:09.982Z,1.27
2018-12-02T15:17:40.587Z,1.27
2018-12-02T15:20:13.481Z,1.32
2018-12-02T15:22:44.710Z,1.50
2018-12-02T15:25:15.305Z,1.77
2018-12-02T15:27:46.276Z,1.82
2018-12-02T15:30:18.601Z,1.72
2018-12-02T15:32:50.924Z,2.65
2018-12-02T15:35:21.709Z,2.40
2018-12-02T15:37:52.244Z,2.15
2018-12-02T15:40:23.004Z,2.10
2018-12-02T15:42:54.073Z,1.80
2018-12-02T15:45:24.652Z,1.45
2018-12-02T15:47:55.184Z,1.37
2018-12-02T15:50:26.213Z,1.67
2018-12-02T15:52:56.760Z,1.57
2018-12-02T15:55:30.758Z,1.72
2018-12-02T15:58:03.726Z,1.62
2018-12-02T16:00:35.779Z,2.00
2018-12-02T16:03:06.654Z,1.45
2018-12-02T16:05:37.373Z,1.37
2018-12-02T16:08:08.533Z,1.40
2018-12-02T16:10:39.067Z,1.32
2018-12-02T16:13:10.914Z,1.50
2018-12-02T16:15:41.500Z,1.70
2018-12-02T16:18:13.402Z,1.30
2018-12-02T16:20:47.689Z,1.70
2018-12-02T16:23:20.809Z,1.77
2018-12-02T16:25:51.568Z,1.60
2018-12-02T16:28:22.503Z,1.87
2018-12-02T16:30:54.366Z,1.75
2018-12-02T16:33:24.933Z,1.80
2018-12-02T16:35:55.498Z,2.00
2018-12-02T16:38:26.031Z,1.95
2018-12-02T16:40:56.609Z,2.05
2018-12-02T16:43:27.171Z,2.40
2018-12-02T16:45:57.742Z,2.25
2018-12-02T16:48:28.285Z,2.60
2018-12-02T16:50:58.865Z,2.40
2018-12-02T16:53:30.518Z,2.75
2018-12-02T16:56:08.996Z,2.80
2018-12-02T16:58:44.839Z,2.72
2018-12-02T17:01:19.989Z,2.75
2018-12-02T17:03:52.579Z,2.83
2018-12-02T17:06:23.484Z,3.37
2018-12-02T17:08:54.895Z,3.12
2018-12-02T17:11:25.445Z,3.35
2018-12-02T17:13:56.031Z,3.47
2018-12-02T17:16:26.584Z,3.60
2018-12-02T17:18:57.164Z,3.40
2018-12-02T17:21:27.709Z,3.62
2018-12-02T17:23:58.297Z,3.75
2018-12-02T17:26:28.857Z,4.03
2018-12-02T17:29:00.331Z,4.15
2018-12-02T17:31:34.129Z,4.53
2018-12-02T17:34:05.091Z,4.45
2018-12-02T17:36:35.817Z,5.00
2018-12-02T17:39:11.382Z,4.58
2018-12-02T17:41:44.262Z,5.00
2018-12-02T17:44:13.608Z,4.78
2018-12-02T17:46:44.152Z,4.67
2018-12-02T17:49:14.741Z,4.58
2018-12-02T17:51:45.311Z,4.15
2018-12-02T17:54:15.887Z,3.22
2018-12-02T17:56:46.457Z,3.95
2018-12-02T17:59:16.993Z,2.92
2018-12-02T18:01:47.757Z,3.50
2018-12-02T18:04:18.354Z,3.72
2018-12-02T18:06:48.911Z,3.20
2018-12-02T18:09:19.481Z,3.70
2018-12-02T18:11:50.022Z,3.65
2018-12-02T18:14:20.593Z,3.35
2018-12-02T18:16:51.158Z,3.85
2018-12-02T18:19:21.752Z,3.70
2018-12-02T18:21:52.484Z,3.98
2018-12-02T18:24:23.061Z,3.77
2018-12-02T18:26:53.605Z,4.55
2018-12-02T18:29:24.198Z,4.65
2018-12-02T18:31:54.751Z,5.40
2018-12-02T18:34:25.310Z,4.90
2018-12-02T18:36:56.028Z,4.12
2018-12-02T18:39:26.626Z,4.42
2018-12-02T18:41:57.186Z,4.87
2018-12-02T18:44:27.830Z,4.25
2018-12-02T18:46:58.417Z,3.70
2018-12-02T18:49:28.978Z,3.00
2018-12-02T18:51:59.546Z,2.58
2018-12-02T18:54:30.109Z,1.95
2018-12-02T18:57:00.677Z,1.92
2018-12-02T18:59:31.398Z,2.25
2018-12-02T19:02:01.966Z,1.60
2018-12-02T19:04:32.517Z,1.75
2018-12-02T19:07:03.100Z,1.82
2018-12-02T19:09:33.650Z,2.00
2018-12-02T19:12:04.222Z,1.70
2018-12-02T19:14:34.793Z,1.77
2018-12-02T19:17:05.350Z,1.90
2018-12-02T19:19:35.910Z,1.95
2018-12-02T19:22:07.385Z,1.70
2018-12-02T19:24:37.948Z,1.87
2018-12-02T19:27:08.837Z,1.62
2018-12-02T19:29:39.389Z,1.80
2018-12-02T19:32:09.974Z,2.12
2018-12-02T19:34:40.527Z,2.45
2018-12-02T19:37:11.693Z,1.87
2018-12-02T19:39:42.233Z,2.05
2018-12-02T19:42:12.997Z,2.08
2018-12-02T19:44:50.345Z,2.50
2018-12-02T19:47:20.925Z,3.80
2018-12-02T19:49:51.478Z,3.58
2018-12-02T19:52:22.061Z,4.15
2018-12-02T19:54:52.828Z,4.05
2018-12-02T19:57:23.409Z,4.12
2018-12-02T19:59:53.990Z,4.42
2018-12-02T20:02:24.574Z,4.70
2018-12-02T20:04:55.150Z,4.35
2018-12-02T20:07:25.903Z,4.37
2018-12-02T20:09:56.466Z,4.05
2018-12-02T20:12:27.026Z,3.98
2018-12-02T20:14:57.595Z,3.40
2018-12-02T20:17:29.903Z,3.15
2018-12-02T20:20:05.890Z,3.33
2018-12-02T20:22:36.433Z,3.02
2018-12-02T20:25:07.593Z,2.55
2018-12-02T20:27:38.319Z,2.98
2018-12-02T20:30:13.486Z,2.70
2018-12-02T20:32:44.389Z,2.80
2018-12-02T20:35:15.285Z,2.60
2018-12-02T20:37:45.852Z,3.70
2018-12-02T20:40:20.339Z,2.83
2018-12-02T20:42:54.961Z,2.37
2018-12-02T20:45:29.935Z,2.30
2018-12-02T20:48:03.556Z,2.20
2018-12-02T20:50:37.514Z,2.45
2018-12-02T20:53:16.081Z,2.20
2018-12-02T20:55:46.926Z,2.20
2018-12-02T20:58:21.882Z,2.40
2018-12-02T21:00:55.540Z,2.10
2018-12-02T21:03:30.860Z,2.47
2018-12-02T21:06:14.218Z,2.67
2018-12-02T21:08:44.831Z,2.65
2018-12-02T21:11:15.414Z,2.70
2018-12-02T21:13:46.343Z,2.12
2018-12-02T21:16:16.905Z,2.10
2018-12-02T21:18:47.781Z,1.80
2018-12-02T21:21:18.393Z,1.80
2018-12-02T21:23:48.955Z,1.70
2018-12-02T21:26:19.545Z,2.00
2018-12-02T21:28:50.082Z,1.72
2018-12-02T21:31:20.648Z,2.27
2018-12-02T21:33:51.220Z,2.00
2018-12-02T21:36:21.810Z,2.35
2018-12-02T21:38:52.373Z,2.22
2018-12-02T21:41:22.948Z,1.87
2018-12-02T21:43:53.693Z,2.33
2018-12-02T21:46:24.237Z,1.95
2018-12-02T21:48:54.817Z,2.12
2018-12-02T21:51:25.385Z,1.95
2018-12-02T21:53:55.972Z,2.35
2018-12-02T21:56:26.707Z,2.70
2018-12-02T21:58:57.459Z,2.60
2018-12-02T22:01:28.233Z,2.52
2018-12-02T22:03:58.801Z,2.70
2018-12-02T22:06:32.603Z,2.80
2018-12-02T22:09:09.572Z,2.75
2018-12-02T22:11:43.747Z,2.60
2018-12-02T22:14:18.526Z,3.12
2018-12-02T22:16:52.388Z,3.02
2018-12-02T22:19:22.961Z,2.83
2018-12-02T22:21:53.593Z,3.30
2018-12-02T22:24:24.586Z,2.65
2018-12-02T22:26:55.278Z,2.08
2018-12-02T22:29:25.998Z,2.40
2018-12-02T22:31:56.572Z,2.77
2018-12-02T22:34:27.172Z,2.60
2018-12-02T22:36:57.660Z,2.80
2018-12-02T22:39:28.434Z,2.85
2018-12-02T22:41:59.162Z,2.92
2018-12-02T22:44:31.576Z,2.95
2018-12-02T22:47:00.321Z,2.77
2018-12-02T22:49:30.881Z,2.77
2018-12-02T22:52:01.443Z,3.35
2018-12-02T22:54:32.042Z,3.67
2018-12-02T22:57:02.598Z,3.85
2018-12-02T22:59:33.169Z,3.05
2018-12-02T23:02:09.502Z,3.20
2018-12-02T23:04:40.077Z,3.00
2018-12-02T23:07:10.663Z,2.67
2018-12-02T23:09:41.440Z,2.62
2018-12-02T23:12:12.057Z,2.55
2018-12-02T23:14:42.654Z,3.10
2018-12-02T23:17:17.952Z,3.37
2018-12-02T23:19:48.608Z,2.17
2018-12-02T23:22:19.352Z,2.80
2018-12-02T23:24:50.793Z,2.30
2018-12-02T23:27:22.356Z,2.45
2018-12-02T23:29:53.013Z,1.82
2018-12-02T23:32:23.749Z,1.80
2018-12-02T23:34:54.315Z,2.00
2018-12-02T23:37:24.899Z,1.90
2018-12-02T23:39:55.443Z,1.98
2018-12-02T23:42:26.026Z,1.62
2018-12-02T23:44:56.586Z,1.45
2018-12-02T23:47:27.171Z,2.37
2018-12-02T23:49:57.919Z,2.17
2018-12-02T23:52:28.498Z,2.02
2018-12-02T23:54:59.453Z,2.05
2018-12-02T23:57:30.034Z,1.90
